This is the latest recevied weather packets stored in our database for station/object 9M4RBN-3. If no packets are shown the sender has not sent any weather packets the latest 10 day(s).
| Time | Temp. | Humidity | Pressure | Rain* | Wind** | Luminosity | Snow |
|---|---|---|---|---|---|---|---|
| 1787734143 | 26.11° C | 56% | 1016.5 hPa | - | - | - | - |
| 1787733243 | 24.44° C | 47% | 1016.4 hPa | - | - | - | - |
| 1787732343 | 24.44° C | 47% | 1016.3 hPa | - | - | - | - |
| 1787731443 | 24.44° C | 48% | 1016.2 hPa | - | - | - | - |
| 1787730542 | 24.44° C | 49% | 1016 hPa | - | - | - | - |
| 1787729679 | 24.44° C | 50% | 1016 hPa | - | - | - | - |
| 1787729642 | 24.44° C | 50% | 1016 hPa | - | - | - | - |
| 1787728742 | 24.44° C | 49% | 1016 hPa | - | - | - | - |
| 1787727887 | 23.89° C | 49% | 1016.3 hPa | - | - | - | - |
| 1787727842 | 23.89° C | 49% | 1016.3 hPa | - | - | - | - |
| 1787726942 | 23.89° C | 50% | 1016.6 hPa | - | - | - | - |
| 1787726079 | 23.89° C | 50% | 1016.7 hPa | - | - | - | - |
| 1787726042 | 23.89° C | 50% | 1016.7 hPa | - | - | - | - |
| 1787725142 | 23.89° C | 50% | 1017.2 hPa | - | - | - | - |
| 1787724242 | 23.89° C | 50% | 1017.5 hPa | - | - | - | - |
| 1787723342 | 23.89° C | 49% | 1017.5 hPa | - | - | - | - |
| 1787722480 | 23.89° C | 49% | 1017.8 hPa | - | - | - | - |
| 1787722442 | 23.89° C | 49% | 1017.8 hPa | - | - | - | - |
| 1787721542 | 24.44° C | 49% | 1018 hPa | - | - | - | - |
| 1787720642 | 24.44° C | 49% | 1018.5 hPa | - | - | - | - |
| 1787719742 | 25° C | 48% | 1018.4 hPa | - | - | - | - |
| 1787718889 | 25.56° C | 52% | 1018.4 hPa | - | - | - | - |
| 1787718842 | 25.56° C | 52% | 1018.4 hPa | - | - | - | - |
| 1787717942 | 26.11° C | 60% | 1018.5 hPa | - | - | - | - |
| 1787717077 | 26.67° C | 74% | 1018.8 hPa | - | - | - | - |
* Rain since midnight (hover to see other rain measurements)
** Current wind speed in m/s (hover to see current wind gust speed)